This is the latest recevied weather packets stored in our database for station/object Ad4UU. If no packets are shown the sender has not sent any weather packets the latest 10 day(s).
| Time | Temp. | Humidity | Pressure | Rain* | Wind** | Luminosity | Snow |
|---|---|---|---|---|---|---|---|
| 1777134333 | 29.44° C | 55% | 1013.5 hPa | 0 mm | - | - | - |
| 1777133431 | 28.89° C | 57% | 1013.4 hPa | 0 mm | - | - | - |
| 1777131050 | 27.78° C | 63% | 1013.5 hPa | 0 mm | - | - | - |
| 1777130431 | 27.22° C | 64% | 1013.4 hPa | 0 mm | - | - | - |
| 1777129247 | 26.67° C | 68% | 1013.4 hPa | 0 mm | - | - | - |
| 1777128631 | 26.11° C | 72% | 1013.3 hPa | 0 mm | - | - | - |
| 1777128350 | 26.11° C | 72% | 1013.2 hPa | 0 mm | - | - | - |
| 1777127449 | 25.56° C | 74% | 1013.3 hPa | 0 mm | - | - | - |
| 1777123845 | 22.78° C | 85% | 1013.3 hPa | 0 mm | - | - | - |
| 1777122331 | 21.67° C | 88% | 1013.1 hPa | 0 mm | - | - | - |
| 1777121729 | 21.11° C | 89% | 1013.1 hPa | 0 mm | - | - | - |
| 1777120248 | 19.44° C | 97% | 1013.3 hPa | 0 mm | - | - | - |
| 1777119929 | 19.44° C | 98% | 1013.3 hPa | 0 mm | - | - | - |
| 1777119632 | 18.89° C | 98% | 1013.2 hPa | 0 mm | - | - | - |
| 1777117231 | 16.11° C | 98% | 1013.1 hPa | 0 mm | - | - | - |
| 1777116934 | 16.11° C | 98% | 1012.9 hPa | 0 mm | - | - | - |
| 1777116030 | 15.56° C | 99% | 1012.9 hPa | 0 mm | - | - | - |
| 1777112152 | 14.44° C | 98% | 1012.5 hPa | 0 mm | - | - | - |
| 1777110630 | 15° C | 98% | 1012.4 hPa | 0 mm | - | - | - |
| 1777110032 | 15° C | 98% | 1012.5 hPa | 0 mm | - | - | - |
| 1777107655 | 15° C | 98% | 1012.4 hPa | 0.25 mm | - | - | - |
| 1777107032 | 15° C | 98% | 1012.5 hPa | 0.25 mm | - | - | - |
| 1777106751 | 15° C | 98% | 1012.7 hPa | 0.25 mm | - | - | - |
| 1777106135 | 15° C | 98% | 1012.8 hPa | 0.25 mm | - | - | - |
| 1777104951 | 15° C | 97% | 1012.9 hPa | 0.25 mm | - | - | - |
* Rain latest hour (hover to see other rain measurements)
** Current wind speed in m/s (hover to see current wind gust speed)